sensor_id;sensor_type;location;lat;lon;timestamp;pressure;altitude;pressure_sealevel;temperature;humidity
3254;BME280;1639;42.804;23.342;2022-09-30T00:00:58;72426.31;;;-148.52;100.00
3254;BME280;1639;42.804;23.342;2022-09-30T00:03:24;72422.19;;;-148.52;100.00
3254;BME280;1639;42.804;23.342;2022-09-30T00:06:00;72434.59;;;-148.52;100.00
3254;BME280;1639;42.804;23.342;2022-09-30T00:08:26;72428.38;;;-148.52;100.00
3254;BME280;1639;42.804;23.342;2022-09-30T00:11:03;72428.38;;;-148.52;100.00
3254;BME280;1639;42.804;23.342;2022-09-30T00:13:34;72428.38;;;-148.52;100.00
3254;BME280;1639;42.804;23.342;2022-09-30T00:16:01;72418.03;;;-148.52;100.00
3254;BME280;1639;42.804;23.342;2022-09-30T00:18:27;72430.44;;;-148.52;100.00
3254;BME280;1639;42.804;23.342;2022-09-30T00:20:52;72438.72;;;-148.52;100.00
3254;BME280;1639;42.804;23.342;2022-09-30T00:23:19;72447.00;;;-148.52;100.00
3254;BME280;1639;42.804;23.342;2022-09-30T00:25:44;72469.75;;;-148.52;100.00
3254;BME280;1639;42.804;23.342;2022-09-30T00:28:10;72473.88;;;-148.52;100.00
3254;BME280;1639;42.804;23.342;2022-09-30T00:30:35;72463.53;;;-148.52;100.00
3254;BME280;1639;42.804;23.342;2022-09-30T00:33:01;72461.47;;;-148.52;100.00
3254;BME280;1639;42.804;23.342;2022-09-30T00:35:26;72461.47;;;-148.52;100.00
3254;BME280;1639;42.804;23.342;2022-09-30T00:37:52;72471.81;;;-148.52;100.00
3254;BME280;1639;42.804;23.342;2022-09-30T00:40:19;72469.75;;;-148.52;100.00
3254;BME280;1639;42.804;23.342;2022-09-30T00:42:45;72473.88;;;-148.52;100.00
3254;BME280;1639;42.804;23.342;2022-09-30T00:45:11;72480.09;;;-148.52;100.00
3254;BME280;1639;42.804;23.342;2022-09-30T00:47:56;72473.88;;;-148.52;100.00
3254;BME280;1639;42.804;23.342;2022-09-30T00:50:42;72484.22;;;-148.52;100.00
3254;BME280;1639;42.804;23.342;2022-09-30T00:53:27;72471.81;;;-148.52;100.00
3254;BME280;1639;42.804;23.342;2022-09-30T00:58:35;72471.81;;;-148.52;100.00
3254;BME280;1639;42.804;23.342;2022-09-30T01:01:02;72469.75;;;-148.52;100.00
3254;BME280;1639;42.804;23.342;2022-09-30T01:03:33;72473.88;;;-148.52;100.00
3254;BME280;1639;42.804;23.342;2022-09-30T01:05:59;72484.22;;;-148.52;100.00
3254;BME280;1639;42.804;23.342;2022-09-30T01:08:26;72471.81;;;-148.52;100.00
3254;BME280;1639;42.804;23.342;2022-09-30T01:10:52;72486.28;;;-148.52;100.00
3254;BME280;1639;42.804;23.342;2022-09-30T01:13:18;72482.16;;;-148.52;100.00
3254;BME280;1639;42.804;23.342;2022-09-30T01:38:11;72492.50;;;-148.52;100.00
3254;BME280;1639;42.804;23.342;2022-09-30T01:46:36;72550.38;;;-148.52;100.00
3254;BME280;1639;42.804;23.342;2022-09-30T01:52:00;72558.66;;;-148.52;100.00
3254;BME280;1639;42.804;23.342;2022-09-30T01:57:44;72558.66;;;-148.52;100.00
3254;BME280;1639;42.804;23.342;2022-09-30T02:00:13;72575.22;;;-148.52;100.00
3254;BME280;1639;42.804;23.342;2022-09-30T02:02:53;72566.94;;;-148.52;100.00
3254;BME280;1639;42.804;23.342;2022-09-30T02:07:59;72583.47;;;-148.52;100.00
3254;BME280;1639;42.804;23.342;2022-09-30T02:10:29;72589.69;;;-148.52;100.00
3254;BME280;1639;42.804;23.342;2022-09-30T02:13:06;72600.03;;;-148.52;100.00
3254;BME280;1639;42.804;23.342;2022-09-30T02:15:42;72602.09;;;-148.52;100.00
3254;BME280;1639;42.804;23.342;2022-09-30T02:18:22;72587.63;;;-148.52;100.00
3254;BME280;1639;42.804;23.342;2022-09-30T02:20:56;72564.88;;;-148.52;100.00
3254;BME280;1639;42.804;23.342;2022-09-30T02:23:32;72564.88;;;-148.52;100.00
3254;BME280;1639;42.804;23.342;2022-09-30T02:26:10;72558.66;;;-148.52;100.00
3254;BME280;1639;42.804;23.342;2022-09-30T02:28:43;72564.88;;;-148.52;100.00
3254;BME280;1639;42.804;23.342;2022-09-30T02:31:11;72579.34;;;-148.52;100.00
3254;BME280;1639;42.804;23.342;2022-09-30T02:36:44;72550.38;;;-148.52;100.00
3254;BME280;1639;42.804;23.342;2022-09-30T02:39:25;72537.97;;;-148.52;100.00
3254;BME280;1639;42.804;23.342;2022-09-30T02:41:59;72537.97;;;-148.52;100.00
3254;BME280;1639;42.804;23.342;2022-09-30T02:44:26;72525.56;;;-148.52;100.00
3254;BME280;1639;42.804;23.342;2022-09-30T02:47:06;72517.31;;;-148.52;100.00
3254;BME280;1639;42.804;23.342;2022-09-30T02:49:39;72523.50;;;-148.52;100.00
3254;BME280;1639;42.804;23.342;2022-09-30T02:52:23;72523.50;;;-148.52;100.00
3254;BME280;1639;42.804;23.342;2022-09-30T02:57:45;72504.91;;;-148.52;100.00
3254;BME280;1639;42.804;23.342;2022-09-30T03:00:17;72533.84;;;-148.52;100.00
3254;BME280;1639;42.804;23.342;2022-09-30T03:02:42;72527.66;;;-148.52;100.00
3254;BME280;1639;42.804;23.342;2022-09-30T03:05:09;72533.84;;;-148.52;100.00
3254;BME280;1639;42.804;23.342;2022-09-30T03:07:36;72542.13;;;-148.52;100.00
3254;BME280;1639;42.804;23.342;2022-09-30T03:10:14;72558.66;;;-148.52;100.00
3254;BME280;1639;42.804;23.342;2022-09-30T03:15:33;72577.28;;;-148.52;100.00
3254;BME280;1639;42.804;23.342;2022-09-30T03:34:43;72604.16;;;-148.52;100.00
3254;BME280;1639;42.804;23.342;2022-09-30T03:37:28;72589.69;;;-148.52;100.00
3254;BME280;1639;42.804;23.342;2022-09-30T03:42:49;72600.03;;;-148.52;100.00
3254;BME280;1639;42.804;23.342;2022-09-30T03:45:27;72602.09;;;-148.52;100.00
3254;BME280;1639;42.804;23.342;2022-09-30T03:47:58;72602.09;;;-148.52;100.00
3254;BME280;1639;42.804;23.342;2022-09-30T03:50:27;72597.97;;;-148.52;100.00
3254;BME280;1639;42.804;23.342;2022-09-30T03:52:53;72593.81;;;-148.52;100.00
3254;BME280;1639;42.804;23.342;2022-09-30T03:55:19;72593.81;;;-148.52;100.00
3254;BME280;1639;42.804;23.342;2022-09-30T03:57:47;72587.63;;;-148.52;100.00
3254;BME280;1639;42.804;23.342;2022-09-30T04:00:13;72595.88;;;-148.52;100.00
3254;BME280;1639;42.804;23.342;2022-09-30T04:02:40;72602.09;;;-148.52;100.00
3254;BME280;1639;42.804;23.342;2022-09-30T04:05:06;72610.38;;;-148.52;100.00
3254;BME280;1639;42.804;23.342;2022-09-30T04:07:31;72612.44;;;-148.52;100.00
3254;BME280;1639;42.804;23.342;2022-09-30T04:09:57;72593.81;;;-148.52;100.00
3254;BME280;1639;42.804;23.342;2022-09-30T04:12:22;72604.16;;;-148.52;100.00
3254;BME280;1639;42.804;23.342;2022-09-30T04:14:48;72604.16;;;-148.52;100.00
3254;BME280;1639;42.804;23.342;2022-09-30T04:17:13;72639.31;;;-148.52;100.00
3254;BME280;1639;42.804;23.342;2022-09-30T04:19:39;72620.69;;;-148.52;100.00
3254;BME280;1639;42.804;23.342;2022-09-30T04:22:05;72645.53;;;-148.52;100.00
3254;BME280;1639;42.804;23.342;2022-09-30T04:24:31;72670.34;;;-148.52;100.00
3254;BME280;1639;42.804;23.342;2022-09-30T04:26:56;72719.97;;;-148.52;100.00
3254;BME280;1639;42.804;23.342;2022-09-30T04:29:22;72734.44;;;-148.52;100.00
3254;BME280;1639;42.804;23.342;2022-09-30T04:31:48;72744.78;;;-148.52;100.00
3254;BME280;1639;42.804;23.342;2022-09-30T04:34:13;72736.50;;;-148.52;100.00
3254;BME280;1639;42.804;23.342;2022-09-30T04:36:39;72728.25;;;-148.52;100.00
3254;BME280;1639;42.804;23.342;2022-09-30T04:39:04;72728.25;;;-148.52;100.00
3254;BME280;1639;42.804;23.342;2022-09-30T04:41:30;72713.75;;;-148.52;100.00
3254;BME280;1639;42.804;23.342;2022-09-30T04:43:56;72722.03;;;-148.52;100.00
3254;BME280;1639;42.804;23.342;2022-09-30T04:46:22;72715.84;;;-148.52;100.00
3254;BME280;1639;42.804;23.342;2022-09-30T04:48:47;72701.34;;;-148.52;100.00
3254;BME280;1639;42.804;23.342;2022-09-30T04:51:18;72707.56;;;-148.52;100.00
3254;BME280;1639;42.804;23.342;2022-09-30T04:53:45;72697.22;;;-148.52;100.00
3254;BME280;1639;42.804;23.342;2022-09-30T04:56:11;72676.53;;;-148.52;100.00
3254;BME280;1639;42.804;23.342;2022-09-30T04:58:36;72678.59;;;-148.52;100.00
3254;BME280;1639;42.804;23.342;2022-09-30T05:01:13;72666.19;;;-148.52;100.00
3254;BME280;1639;42.804;23.342;2022-09-30T05:03:39;72649.66;;;-148.52;100.00
3254;BME280;1639;42.804;23.342;2022-09-30T05:06:06;72624.84;;;-148.52;100.00
3254;BME280;1639;42.804;23.342;2022-09-30T05:08:32;72618.63;;;-148.52;100.00
3254;BME280;1639;42.804;23.342;2022-09-30T05:11:08;72595.88;;;-148.52;100.00
3254;BME280;1639;42.804;23.342;2022-09-30T05:13:36;72581.41;;;-148.52;100.00
3254;BME280;1639;42.804;23.342;2022-09-30T05:16:02;72583.47;;;-148.52;100.00
3254;BME280;1639;42.804;23.342;2022-09-30T05:18:28;72595.88;;;-148.52;100.00
3254;BME280;1639;42.804;23.342;2022-09-30T05:20:55;72583.47;;;-148.52;100.00
3254;BME280;1639;42.804;23.342;2022-09-30T05:23:26;72583.47;;;-148.52;100.00
3254;BME280;1639;42.804;23.342;2022-09-30T05:25:52;72591.75;;;-148.52;100.00
3254;BME280;1639;42.804;23.342;2022-09-30T05:28:17;72604.16;;;-148.52;100.00
3254;BME280;1639;42.804;23.342;2022-09-30T05:30:43;72604.16;;;-148.52;100.00
3254;BME280;1639;42.804;23.342;2022-09-30T05:33:10;72591.75;;;-148.52;100.00
3254;BME280;1639;42.804;23.342;2022-09-30T05:35:38;72577.28;;;-148.52;100.00
3254;BME280;1639;42.804;23.342;2022-09-30T05:38:04;72591.75;;;-148.52;100.00
3254;BME280;1639;42.804;23.342;2022-09-30T05:40:30;72604.16;;;-148.52;100.00
3254;BME280;1639;42.804;23.342;2022-09-30T05:42:56;72608.28;;;-148.52;100.00
3254;BME280;1639;42.804;23.342;2022-09-30T05:45:22;72608.28;;;-148.52;100.00
3254;BME280;1639;42.804;23.342;2022-09-30T05:47:52;72612.44;;;-148.52;100.00
3254;BME280;1639;42.804;23.342;2022-09-30T05:50:18;72608.28;;;-148.52;100.00
3254;BME280;1639;42.804;23.342;2022-09-30T05:52:45;72616.56;;;-148.52;100.00
3254;BME280;1639;42.804;23.342;2022-09-30T05:55:10;72608.28;;;-148.52;100.00
3254;BME280;1639;42.804;23.342;2022-09-30T05:57:36;72608.28;;;-148.52;100.00
3254;BME280;1639;42.804;23.342;2022-09-30T06:00:02;72624.84;;;-148.52;100.00
3254;BME280;1639;42.804;23.342;2022-09-30T06:02:27;72643.44;;;-148.52;100.00
3254;BME280;1639;42.804;23.342;2022-09-30T06:04:53;72649.66;;;-148.52;100.00
3254;BME280;1639;42.804;23.342;2022-09-30T06:07:18;72637.25;;;-148.52;100.00
3254;BME280;1639;42.804;23.342;2022-09-30T06:09:44;72633.13;;;-148.52;100.00
3254;BME280;1639;42.804;23.342;2022-09-30T06:12:10;72639.31;;;-148.52;100.00
3254;BME280;1639;42.804;23.342;2022-09-30T06:14:36;72624.84;;;-148.52;100.00
3254;BME280;1639;42.804;23.342;2022-09-30T06:17:01;72657.94;;;-148.52;100.00
3254;BME280;1639;42.804;23.342;2022-09-30T06:19:27;72676.53;;;-148.52;100.00
3254;BME280;1639;42.804;23.342;2022-09-30T06:21:54;72670.34;;;-148.52;100.00
3254;BME280;1639;42.804;23.342;2022-09-30T06:24:20;72664.13;;;-148.52;100.00
3254;BME280;1639;42.804;23.342;2022-09-30T06:26:45;72639.31;;;-148.52;100.00
3254;BME280;1639;42.804;23.342;2022-09-30T06:29:11;72651.72;;;-148.52;100.00
3254;BME280;1639;42.804;23.342;2022-09-30T06:31:36;72641.38;;;-148.52;100.00
3254;BME280;1639;42.804;23.342;2022-09-30T06:34:02;72641.38;;;-148.52;100.00
3254;BME280;1639;42.804;23.342;2022-09-30T06:36:27;72643.44;;;-148.52;100.00
3254;BME280;1639;42.804;23.342;2022-09-30T06:38:53;72628.97;;;-148.52;100.00
3254;BME280;1639;42.804;23.342;2022-09-30T06:41:19;72624.84;;;-148.52;100.00
3254;BME280;1639;42.804;23.342;2022-09-30T06:43:45;72616.56;;;-148.52;100.00
3254;BME280;1639;42.804;23.342;2022-09-30T06:46:11;72608.28;;;-148.52;100.00
3254;BME280;1639;42.804;23.342;2022-09-30T06:48:37;72608.28;;;-148.52;100.00
3254;BME280;1639;42.804;23.342;2022-09-30T06:51:03;72616.56;;;-148.52;100.00
3254;BME280;1639;42.804;23.342;2022-09-30T06:53:28;72614.50;;;-148.52;100.00
3254;BME280;1639;42.804;23.342;2022-09-30T06:55:55;72595.88;;;-148.52;100.00
3254;BME280;1639;42.804;23.342;2022-09-30T06:58:21;72585.53;;;-148.52;100.00
3254;BME280;1639;42.804;23.342;2022-09-30T07:01:03;72593.81;;;-148.52;100.00
3254;BME280;1639;42.804;23.342;2022-09-30T07:03:31;72579.34;;;-148.52;100.00
3254;BME280;1639;42.804;23.342;2022-09-30T07:05:58;72554.53;;;-148.52;100.00
3254;BME280;1639;42.804;23.342;2022-09-30T07:08:25;72537.97;;;-148.52;100.00
3254;BME280;1639;42.804;23.342;2022-09-30T07:10:53;72513.16;;;-148.52;100.00
3254;BME280;1639;42.804;23.342;2022-09-30T07:13:18;72488.34;;;-148.52;100.00
3254;BME280;1639;42.804;23.342;2022-09-30T07:15:44;72473.88;;;-148.52;100.00
3254;BME280;1639;42.804;23.342;2022-09-30T07:18:09;72453.19;;;-148.52;100.00
3254;BME280;1639;42.804;23.342;2022-09-30T07:20:35;72447.00;;;-148.52;100.00
3254;BME280;1639;42.804;23.342;2022-09-30T07:23:00;72451.13;;;-148.52;100.00
3254;BME280;1639;42.804;23.342;2022-09-30T07:25:25;72447.00;;;-148.52;100.00
3254;BME280;1639;42.804;23.342;2022-09-30T07:27:51;72430.44;;;-148.52;100.00
3254;BME280;1639;42.804;23.342;2022-09-30T07:30:19;72420.09;;;-148.52;100.00
3254;BME280;1639;42.804;23.342;2022-09-30T07:32:44;72420.09;;;-148.52;100.00
3254;BME280;1639;42.804;23.342;2022-09-30T07:35:10;72424.25;;;-148.52;100.00
3254;BME280;1639;42.804;23.342;2022-09-30T07:37:35;72407.69;;;-148.52;100.00
3254;BME280;1639;42.804;23.342;2022-09-30T07:40:03;72415.97;;;-148.52;100.00
3254;BME280;1639;42.804;23.342;2022-09-30T07:42:30;72403.56;;;-148.52;100.00
3254;BME280;1639;42.804;23.342;2022-09-30T07:44:56;72393.22;;;-148.52;100.00
3254;BME280;1639;42.804;23.342;2022-09-30T07:47:22;72358.06;;;-148.52;100.00
3254;BME280;1639;42.804;23.342;2022-09-30T07:49:47;72370.47;;;-148.52;100.00
3254;BME280;1639;42.804;23.342;2022-09-30T07:52:13;72360.13;;;-148.52;100.00
3254;BME280;1639;42.804;23.342;2022-09-30T07:54:40;72384.97;;;-148.52;100.00
3254;BME280;1639;42.804;23.342;2022-09-30T07:57:06;72380.81;;;-148.52;100.00
3254;BME280;1639;42.804;23.342;2022-09-30T07:59:35;72378.75;;;-148.52;100.00
3254;BME280;1639;42.804;23.342;2022-09-30T08:02:02;72387.03;;;-148.52;100.00
3254;BME280;1639;42.804;23.342;2022-09-30T08:04:28;72376.69;;;-148.52;100.00
3254;BME280;1639;42.804;23.342;2022-09-30T08:06:56;72374.63;;;-148.52;100.00
3254;BME280;1639;42.804;23.342;2022-09-30T08:09:24;72347.72;;;-148.52;100.00
3254;BME280;1639;42.804;23.342;2022-09-30T08:11:50;72312.59;;;-148.52;100.00
3254;BME280;1639;42.804;23.342;2022-09-30T08:14:18;72260.88;;;-148.52;100.00
3254;BME280;1639;42.804;23.342;2022-09-30T08:16:45;72194.72;;;-148.52;99.97
3254;BME280;1639;42.804;23.342;2022-09-30T08:19:15;72149.22;;;-148.52;97.16
3254;BME280;1639;42.804;23.342;2022-09-30T08:21:42;72130.63;;;-148.52;95.86
3254;BME280;1639;42.804;23.342;2022-09-30T08:24:09;72167.84;;;-148.52;96.86
3254;BME280;1639;42.804;23.342;2022-09-30T08:26:34;72169.91;;;-148.52;97.47
3254;BME280;1639;42.804;23.342;2022-09-30T08:29:00;72124.41;;;-148.52;94.97
3254;BME280;1639;42.804;23.342;2022-09-30T08:31:26;72132.69;;;-148.52;94.93
3254;BME280;1639;42.804;23.342;2022-09-30T08:33:52;72097.53;;;-148.52;94.80
3254;BME280;1639;42.804;23.342;2022-09-30T08:36:23;72081.00;;;-148.52;93.88
3254;BME280;1639;42.804;23.342;2022-09-30T08:38:49;72054.09;;;-148.52;93.70
3254;BME280;1639;42.804;23.342;2022-09-30T08:52:41;71865.94;;;-148.52;85.95
3254;BME280;1639;42.804;23.342;2022-09-30T08:55:24;71834.94;;;-148.52;85.13
3254;BME280;1639;42.804;23.342;2022-09-30T08:57:52;71818.38;;;-148.52;83.85
3254;BME280;1639;42.804;23.342;2022-09-30T09:00:19;71789.44;;;-148.52;85.13
3254;BME280;1639;42.804;23.342;2022-09-30T09:02:49;71768.78;;;-148.52;83.59
3254;BME280;1639;42.804;23.342;2022-09-30T09:05:42;71772.91;;;-148.52;82.53
3254;BME280;1639;42.804;23.342;2022-09-30T09:10:59;71814.25;;;-148.52;82.77
3254;BME280;1639;42.804;23.342;2022-09-30T09:13:42;71756.38;;;-148.52;82.93
3254;BME280;1639;42.804;23.342;2022-09-30T09:24:01;71669.53;;;-148.52;78.13
3254;BME280;1639;42.804;23.342;2022-09-30T09:26:31;71655.06;;;-148.52;77.86
3254;BME280;1639;42.804;23.342;2022-09-30T09:29:19;71630.25;;;-148.52;75.71
3254;BME280;1639;42.804;23.342;2022-09-30T09:31:47;71609.56;;;-148.52;72.58
3254;BME280;1639;42.804;23.342;2022-09-30T09:34:13;71578.56;;;-148.52;69.83
3254;BME280;1639;42.804;23.342;2022-09-30T09:44:59;71491.72;;;-148.52;57.89
3254;BME280;1639;42.804;23.342;2022-09-30T09:47:26;71477.25;;;-148.52;58.68
3254;BME280;1639;42.804;23.342;2022-09-30T09:49:58;71466.91;;;-148.52;57.80
3254;BME280;1639;42.804;23.342;2022-09-30T09:55:18;71431.78;;;-148.52;56.11
3254;BME280;1639;42.804;23.342;2022-09-30T09:57:45;71425.56;;;-148.52;57.78
3254;BME280;1639;42.804;23.342;2022-09-30T10:00:21;71406.97;;;-148.52;55.24
3254;BME280;1639;42.804;23.342;2022-09-30T10:03:16;71398.69;;;-148.52;52.21
3254;BME280;1639;42.804;23.342;2022-09-30T10:08:24;71392.50;;;-148.52;50.20
3254;BME280;1639;42.804;23.342;2022-09-30T10:10:52;71404.91;;;-148.52;51.49
3254;BME280;1639;42.804;23.342;2022-09-30T10:13:21;71390.41;;;-148.52;52.29
3254;BME280;1639;42.804;23.342;2022-09-30T10:15:49;71390.41;;;-148.52;48.56
3254;BME280;1639;42.804;23.342;2022-09-30T10:18:27;71384.22;;;-148.52;49.44
3254;BME280;1639;42.804;23.342;2022-09-30T10:21:21;71371.81;;;-148.52;48.95
3254;BME280;1639;42.804;23.342;2022-09-30T10:23:44;71347.00;;;-148.52;48.76
3254;BME280;1639;42.804;23.342;2022-09-30T10:28:49;71338.75;;;-148.52;47.10
3254;BME280;1639;42.804;23.342;2022-09-30T10:36:20;71369.75;;;-148.52;47.08
3254;BME280;1639;42.804;23.342;2022-09-30T10:39:01;71373.88;;;-148.52;46.53
3254;BME280;1639;42.804;23.342;2022-09-30T10:41:29;71464.84;;;-148.52;49.10
3254;BME280;1639;42.804;23.342;2022-09-30T10:44:00;71448.31;;;-148.52;47.82
3254;BME280;1639;42.804;23.342;2022-09-30T10:46:29;71444.19;;;-148.52;48.47
3254;BME280;1639;42.804;23.342;2022-09-30T10:48:57;71485.53;;;-148.52;48.59
3254;BME280;1639;42.804;23.342;2022-09-30T10:51:31;71491.72;;;-148.52;49.35
3254;BME280;1639;42.804;23.342;2022-09-30T10:54:02;71460.72;;;-148.52;49.31
3254;BME280;1639;42.804;23.342;2022-09-30T10:56:42;71425.56;;;-148.52;49.76
3254;BME280;1639;42.804;23.342;2022-09-30T10:59:15;71396.63;;;-148.52;46.68
3254;BME280;1639;42.804;23.342;2022-09-30T11:01:56;71380.09;;;-148.52;46.56
3254;BME280;1639;42.804;23.342;2022-09-30T11:04:34;71380.09;;;-148.52;44.02
3254;BME280;1639;42.804;23.342;2022-09-30T11:09:59;71357.34;;;-148.52;46.36
3254;BME280;1639;42.804;23.342;2022-09-30T11:12:40;71359.41;;;-148.52;45.58
3254;BME280;1639;42.804;23.342;2022-09-30T11:15:21;71353.22;;;-148.52;45.72
3254;BME280;1639;42.804;23.342;2022-09-30T11:18:28;71326.34;;;-148.52;44.23
3254;BME280;1639;42.804;23.342;2022-09-30T11:21:02;71320.13;;;-148.52;43.44
3254;BME280;1639;42.804;23.342;2022-09-30T11:23:37;71338.75;;;-148.52;43.81
3254;BME280;1639;42.804;23.342;2022-09-30T11:31:26;71326.34;;;-148.52;40.39
3254;BME280;1639;42.804;23.342;2022-09-30T11:43:05;71347.00;;;-148.52;41.26
3254;BME280;1639;42.804;23.342;2022-09-30T11:57:18;71338.75;;;-148.52;42.07
3254;BME280;1639;42.804;23.342;2022-09-30T11:59:58;71361.47;;;-148.52;41.99
3254;BME280;1639;42.804;23.342;2022-09-30T12:02:37;71349.06;;;-148.52;41.88
3254;BME280;1639;42.804;23.342;2022-09-30T12:05:14;71332.53;;;-148.52;43.00
3254;BME280;1639;42.804;23.342;2022-09-30T12:07:49;71318.06;;;-148.52;42.08
3254;BME280;1639;42.804;23.342;2022-09-30T12:10:19;71309.78;;;-148.52;40.67
3254;BME280;1639;42.804;23.342;2022-09-30T12:12:49;71307.72;;;-148.52;41.72
3254;BME280;1639;42.804;23.342;2022-09-30T12:15:19;71309.78;;;-148.52;40.26
3254;BME280;1639;42.804;23.342;2022-09-30T12:17:59;71301.53;;;-148.52;41.52
3254;BME280;1639;42.804;23.342;2022-09-30T12:23:34;71289.13;;;-148.52;41.29
3254;BME280;1639;42.804;23.342;2022-09-30T12:26:03;71284.97;;;-148.52;40.54
3254;BME280;1639;42.804;23.342;2022-09-30T12:31:40;71295.31;;;-148.52;40.69
3254;BME280;1639;42.804;23.342;2022-09-30T12:47:49;71239.50;;;-148.52;39.68
3254;BME280;1639;42.804;23.342;2022-09-30T12:50:19;71239.50;;;-148.52;39.04
3254;BME280;1639;42.804;23.342;2022-09-30T12:52:46;71247.78;;;-148.52;38.95
3254;BME280;1639;42.804;23.342;2022-09-30T12:55:38;71247.78;;;-148.52;38.33
3254;BME280;1639;42.804;23.342;2022-09-30T12:58:05;71239.50;;;-148.52;39.38
3254;BME280;1639;42.804;23.342;2022-09-30T13:00:38;71243.63;;;-148.52;39.13
3254;BME280;1639;42.804;23.342;2022-09-30T13:03:05;71233.31;;;-148.52;38.65
3254;BME280;1639;42.804;23.342;2022-09-30T13:23:37;71253.97;;;-148.52;38.79
3254;BME280;1639;42.804;23.342;2022-09-30T13:28:49;71264.31;;;-148.52;37.91
3254;BME280;1639;42.804;23.342;2022-09-30T13:31:23;71264.31;;;-148.52;38.82
3254;BME280;1639;42.804;23.342;2022-09-30T13:39:30;71268.44;;;-148.52;37.94
3254;BME280;1639;42.804;23.342;2022-09-30T13:48:06;71260.19;;;-148.52;38.51
3254;BME280;1639;42.804;23.342;2022-09-30T13:50:52;71260.19;;;-148.52;37.84
3254;BME280;1639;42.804;23.342;2022-09-30T13:53:27;71266.38;;;-148.52;38.73
3254;BME280;1639;42.804;23.342;2022-09-30T13:55:54;71264.31;;;-148.52;37.41
3254;BME280;1639;42.804;23.342;2022-09-30T13:58:56;71272.59;;;-148.52;37.34
3254;BME280;1639;42.804;23.342;2022-09-30T14:13:44;71293.25;;;-148.52;38.02
3254;BME280;1639;42.804;23.342;2022-09-30T14:19:07;71305.66;;;-148.52;37.61
3254;BME280;1639;42.804;23.342;2022-09-30T14:21:43;71313.94;;;-148.52;36.79
3254;BME280;1639;42.804;23.342;2022-09-30T14:24:15;71330.47;;;-148.52;38.11
3254;BME280;1639;42.804;23.342;2022-09-30T14:32:46;71347.00;;;-148.52;38.16
3254;BME280;1639;42.804;23.342;2022-09-30T14:35:22;71357.34;;;-148.52;38.24
3254;BME280;1639;42.804;23.342;2022-09-30T14:37:52;71369.75;;;-148.52;37.74
3254;BME280;1639;42.804;23.342;2022-09-30T14:40:24;71375.94;;;-148.52;37.71
3254;BME280;1639;42.804;23.342;2022-09-30T14:42:51;71375.94;;;-148.52;37.88
3254;BME280;1639;42.804;23.342;2022-09-30T14:45:25;71380.09;;;-148.52;39.06
3254;BME280;1639;42.804;23.342;2022-09-30T14:47:54;71388.34;;;-148.52;38.48
3254;BME280;1639;42.804;23.342;2022-09-30T14:50:25;71388.34;;;-148.52;38.43
3254;BME280;1639;42.804;23.342;2022-09-30T14:52:51;71396.63;;;-148.52;38.62
3254;BME280;1639;42.804;23.342;2022-09-30T14:55:32;71398.69;;;-148.52;38.79
3254;BME280;1639;42.804;23.342;2022-09-30T15:00:43;71425.56;;;-148.52;39.30
3254;BME280;1639;42.804;23.342;2022-09-30T15:03:11;71421.44;;;-148.52;39.41
3254;BME280;1639;42.804;23.342;2022-09-30T15:05:37;71429.69;;;-148.52;40.50
3254;BME280;1639;42.804;23.342;2022-09-30T15:08:09;71425.56;;;-148.52;40.06
3254;BME280;1639;42.804;23.342;2022-09-30T15:10:35;71427.63;;;-148.52;38.98
3254;BME280;1639;42.804;23.342;2022-09-30T15:13:01;71427.63;;;-148.52;38.81
3254;BME280;1639;42.804;23.342;2022-09-30T15:15:35;71437.97;;;-148.52;39.19
3254;BME280;1639;42.804;23.342;2022-09-30T15:18:27;71454.50;;;-148.52;39.51
3254;BME280;1639;42.804;23.342;2022-09-30T15:20:55;71462.78;;;-148.52;39.89
3254;BME280;1639;42.804;23.342;2022-09-30T15:23:28;71471.06;;;-148.52;40.77
3254;BME280;1639;42.804;23.342;2022-09-30T15:25:54;71479.31;;;-148.52;40.79
3254;BME280;1639;42.804;23.342;2022-09-30T15:28:21;71491.72;;;-148.52;41.34
3254;BME280;1639;42.804;23.342;2022-09-30T15:30:47;71500.00;;;-148.52;41.67
3254;BME280;1639;42.804;23.342;2022-09-30T15:33:18;71522.72;;;-148.52;42.76
3254;BME280;1639;42.804;23.342;2022-09-30T15:35:46;71524.81;;;-148.52;42.64
3254;BME280;1639;42.804;23.342;2022-09-30T15:40:47;71574.41;;;-148.52;44.07
3254;BME280;1639;42.804;23.342;2022-09-30T15:43:44;71582.69;;;-148.52;44.32
3254;BME280;1639;42.804;23.342;2022-09-30T15:48:46;71607.50;;;-148.52;44.55
3254;BME280;1639;42.804;23.342;2022-09-30T15:51:23;71615.78;;;-148.52;45.37
3254;BME280;1639;42.804;23.342;2022-09-30T15:53:49;71632.31;;;-148.52;46.50
3254;BME280;1639;42.804;23.342;2022-09-30T15:56:23;71661.25;;;-148.52;47.66
3254;BME280;1639;42.804;23.342;2022-09-30T16:06:47;71758.44;;;-148.52;49.61
3254;BME280;1639;42.804;23.342;2022-09-30T16:11:42;71783.25;;;-148.52;48.96
3254;BME280;1639;42.804;23.342;2022-09-30T16:14:18;71806.00;;;-148.52;49.53
3254;BME280;1639;42.804;23.342;2022-09-30T16:16:50;71828.72;;;-148.52;49.81
3254;BME280;1639;42.804;23.342;2022-09-30T16:19:17;71863.88;;;-148.52;52.47
3254;BME280;1639;42.804;23.342;2022-09-30T16:21:47;71880.41;;;-148.52;52.91
3254;BME280;1639;42.804;23.342;2022-09-30T16:26:50;71940.38;;;-148.52;54.66
3254;BME280;1639;42.804;23.342;2022-09-30T16:29:16;71946.59;;;-148.52;55.20
3254;BME280;1639;42.804;23.342;2022-09-30T16:31:42;71954.84;;;-148.52;55.68
3254;BME280;1639;42.804;23.342;2022-09-30T16:34:27;71983.81;;;-148.52;57.30
3254;BME280;1639;42.804;23.342;2022-09-30T16:37:02;72002.41;;;-148.52;57.62
3254;BME280;1639;42.804;23.342;2022-09-30T16:39:27;72049.97;;;-148.52;59.17
3254;BME280;1639;42.804;23.342;2022-09-30T16:41:53;72068.59;;;-148.52;58.75
3254;BME280;1639;42.804;23.342;2022-09-30T16:44:18;72128.53;;;-148.52;59.69
3254;BME280;1639;42.804;23.342;2022-09-30T16:46:44;72130.63;;;-148.52;59.59
3254;BME280;1639;42.804;23.342;2022-09-30T16:49:16;72124.41;;;-148.52;59.61
3254;BME280;1639;42.804;23.342;2022-09-30T16:51:42;72105.81;;;-148.52;59.21
3254;BME280;1639;42.804;23.342;2022-09-30T16:54:08;72107.88;;;-148.52;59.00